createdAt,value
2017-04-21T00:00:05.351Z,29
2017-04-21T00:02:07.939Z,29
2017-04-21T00:04:05.737Z,29
2017-04-21T00:06:05.448Z,29
2017-04-21T00:08:08.666Z,29
2017-04-21T00:10:05.351Z,29
2017-04-21T00:12:05.035Z,29
2017-04-21T00:14:06.024Z,29
2017-04-21T00:16:05.226Z,29
2017-04-21T00:18:07.697Z,29
2017-04-21T00:20:05.693Z,29
2017-04-21T00:22:05.475Z,29
2017-04-21T00:24:07.840Z,29
2017-04-21T00:26:05.923Z,29
2017-04-21T00:28:05.713Z,29
2017-04-21T00:30:05.921Z,29
2017-04-21T00:32:05.905Z,29
2017-04-21T00:34:08.151Z,29
2017-04-21T00:36:05.833Z,29
2017-04-21T00:38:05.645Z,28.8
2017-04-21T00:40:05.503Z,29
2017-04-21T00:42:05.179Z,28.8
2017-04-21T00:44:06.164Z,28.8
2017-04-21T00:46:05.952Z,28.8
2017-04-21T00:48:08.163Z,28.8
2017-04-21T00:50:06.002Z,28.8
2017-04-21T00:52:13.293Z,28.8
2017-04-21T00:54:06.018Z,28.9
2017-04-21T00:56:05.953Z,28.8
2017-04-21T00:58:08.679Z,28.8
2017-04-21T01:00:08.482Z,28.8
2017-04-21T01:02:07.419Z,28.8
2017-04-21T01:04:08.114Z,28.8
2017-04-21T01:06:08.408Z,28.8
2017-04-21T01:08:06.390Z,28.8
2017-04-21T01:10:05.688Z,28.8
2017-04-21T01:12:06.404Z,28.9
2017-04-21T01:14:06.250Z,28.8
2017-04-21T01:16:08.232Z,28.8
2017-04-21T01:18:05.848Z,28.8
2017-04-21T01:20:05.405Z,28.8
2017-04-21T01:22:05.794Z,28.8
2017-04-21T01:24:05.908Z,28.8
2017-04-21T01:26:05.971Z,28.8
2017-04-21T01:28:05.929Z,28.8
2017-04-21T01:30:10.195Z,28.8
2017-04-21T01:32:06.050Z,28.8
2017-04-21T01:34:05.418Z,28.8
2017-04-21T01:36:05.119Z,28.8
2017-04-21T01:38:05.923Z,28.8
2017-04-21T01:40:05.806Z,28.8
2017-04-21T01:42:05.476Z,28.8
2017-04-21T01:44:05.580Z,28.8
2017-04-21T01:46:05.873Z,28.8
2017-04-21T01:48:05.096Z,28.7
2017-04-21T01:50:08.518Z,28.8
2017-04-21T01:52:05.188Z,28.8
2017-04-21T01:54:05.887Z,28.7
2017-04-21T01:56:05.856Z,28.7
2017-04-21T01:58:08.116Z,28.7
2017-04-21T02:00:06.108Z,28.7
2017-04-21T02:02:05.724Z,28.7
2017-04-21T02:04:05.075Z,28.7
2017-04-21T02:06:08.267Z,28.7
2017-04-21T02:08:08.657Z,28.7
2017-04-21T02:10:05.340Z,28.7
2017-04-21T02:12:05.015Z,28.7
2017-04-21T02:14:05.554Z,28.7
2017-04-21T02:16:05.386Z,28.7
2017-04-21T02:18:05.282Z,28.7
2017-04-21T02:20:06.264Z,28.6
2017-04-21T02:22:06.030Z,28.7
2017-04-21T02:24:10.835Z,28.7
2017-04-21T02:26:05.924Z,28.6
2017-04-21T02:28:05.660Z,28.7
2017-04-21T02:30:07.917Z,28.6
2017-04-21T02:32:06.009Z,28.7
2017-04-21T02:34:05.749Z,28.6
2017-04-21T02:36:08.025Z,28.6
2017-04-21T02:38:05.633Z,28.6
2017-04-21T02:40:05.390Z,28.6
2017-04-21T02:42:10.115Z,28.6
2017-04-21T02:44:06.065Z,28.6
2017-04-21T02:46:05.693Z,28.6
2017-04-21T02:48:08.711Z,28.7
2017-04-21T02:50:05.552Z,28.7
2017-04-21T02:52:05.269Z,28.6
2017-04-21T02:54:06.025Z,28.6
2017-04-21T02:56:06.301Z,28.6
2017-04-21T02:58:07.649Z,28.6
2017-04-21T03:00:05.344Z,28.6
2017-04-21T03:02:05.260Z,28.6
2017-04-21T03:04:06.291Z,28.6
2017-04-21T03:06:08.566Z,28.6
2017-04-21T03:08:06.061Z,28.6
2017-04-21T03:10:05.714Z,28.7
2017-04-21T03:12:05.386Z,28.7
2017-04-21T03:14:15.358Z,28.6
2017-04-21T03:16:07.645Z,28.6
2017-04-21T03:18:13.193Z,28.6
2017-04-21T03:20:06.318Z,28.6
2017-04-21T03:22:04.943Z,28.6
2017-04-21T03:24:05.598Z,28.6
2017-04-21T03:26:06.123Z,28.4
2017-04-21T03:28:07.870Z,28.5
2017-04-21T03:30:05.587Z,28.4
2017-04-21T03:32:05.647Z,28.5
2017-04-21T03:34:05.341Z,28.5
2017-04-21T03:36:05.261Z,28.6
2017-04-21T03:38:06.208Z,28.5
2017-04-21T03:40:05.466Z,28.4
2017-04-21T03:42:07.686Z,28.5
2017-04-21T03:44:05.587Z,28.4
2017-04-21T03:46:05.290Z,28.6
2017-04-21T03:48:13.584Z,28.5
2017-04-21T03:50:05.637Z,28.5
2017-04-21T03:52:05.544Z,28.5
2017-04-21T03:54:05.750Z,28.5
2017-04-21T03:56:05.516Z,28.5
2017-04-21T03:58:05.186Z,28.4
2017-04-21T04:00:13.531Z,28.4
2017-04-21T04:02:13.231Z,28.4
2017-04-21T04:04:05.899Z,28.4
2017-04-21T04:06:05.564Z,28.5
2017-04-21T04:08:05.716Z,28.5
2017-04-21T04:10:10.496Z,28.4
2017-04-21T04:12:05.171Z,28.4
2017-04-21T04:14:11.304Z,28.5
2017-04-21T04:16:08.155Z,28.5
2017-04-21T04:18:07.571Z,28.5
2017-04-21T04:20:05.370Z,28.5
2017-04-21T04:22:05.045Z,28.4
2017-04-21T04:24:06.202Z,28.5
2017-04-21T04:26:05.997Z,28.5
2017-04-21T04:28:05.709Z,28.4
2017-04-21T04:30:05.442Z,28.5
2017-04-21T04:32:05.321Z,28.5
2017-04-21T04:34:05.978Z,28.5
2017-04-21T04:36:08.230Z,28.5
2017-04-21T04:38:06.223Z,28.5
2017-04-21T04:40:12.151Z,28.5
2017-04-21T04:42:05.918Z,28.5
2017-04-21T04:44:05.351Z,28.5
2017-04-21T04:46:05.152Z,28.5
2017-04-21T04:48:05.814Z,28.5
2017-04-21T04:50:08.434Z,28.5
2017-04-21T04:52:05.231Z,28.5
2017-04-21T04:54:05.961Z,28.5
2017-04-21T04:56:08.183Z,28.5
2017-04-21T04:58:05.405Z,28.5
2017-04-21T05:00:05.121Z,28.5
2017-04-21T05:02:06.065Z,28.5
2017-04-21T05:04:07.648Z,28.5
2017-04-21T05:06:05.882Z,28.5
2017-04-21T05:08:10.920Z,28.5
2017-04-21T05:10:10.724Z,28.5
2017-04-21T05:12:06.270Z,28.5
2017-04-21T05:14:06.134Z,28.5
2017-04-21T05:16:05.953Z,28.5
2017-04-21T05:18:07.686Z,28.5
2017-04-21T05:20:05.862Z,28.5
2017-04-21T05:22:05.636Z,28.5
2017-04-21T05:24:10.922Z,28.5
2017-04-21T05:26:06.200Z,28.5
2017-04-21T05:28:18.807Z,28.5
2017-04-21T05:30:05.540Z,28.5
2017-04-21T05:32:08.127Z,28.5
2017-04-21T05:34:05.849Z,28.5
2017-04-21T05:36:05.566Z,28.5
2017-04-21T05:38:06.093Z,28.5
2017-04-21T05:40:05.813Z,28.5
2017-04-21T05:42:08.031Z,28.5
2017-04-21T05:44:06.122Z,28.6
2017-04-21T05:46:06.037Z,28.5
2017-04-21T05:48:05.739Z,28.5
2017-04-21T05:50:10.804Z,28.5
2017-04-21T05:52:05.145Z,28.5
2017-04-21T05:54:05.860Z,28.5
2017-04-21T05:56:08.350Z,28.5
2017-04-21T05:58:07.638Z,28.5
2017-04-21T06:00:05.602Z,28.5
2017-04-21T06:02:05.788Z,28.5
2017-04-21T06:04:05.463Z,28.5
2017-04-21T06:06:07.860Z,28.5
2017-04-21T06:08:06.089Z,28.5
2017-04-21T06:10:05.158Z,28.5
2017-04-21T06:12:11.025Z,28.5
2017-04-21T06:14:05.625Z,28.5
2017-04-21T06:16:08.082Z,28.5
2017-04-21T06:18:05.093Z,28.5
2017-04-21T06:20:05.888Z,28.5
2017-04-21T06:22:05.636Z,28.5
2017-04-21T06:24:05.345Z,28.5
2017-04-21T06:26:05.354Z,28.5
2017-04-21T06:28:05.086Z,28.5
2017-04-21T06:30:05.763Z,28.5
2017-04-21T06:32:13.334Z,28.5
2017-04-21T06:34:10.068Z,28.5
2017-04-21T06:36:08.337Z,28.4
2017-04-21T06:38:10.322Z,28.5
2017-04-21T06:40:05.033Z,28.5
2017-04-21T06:42:08.244Z,28.5
2017-04-21T06:44:06.357Z,28.5
2017-04-21T06:46:10.178Z,28.5
2017-04-21T06:48:13.731Z,28.5
2017-04-21T06:50:05.706Z,28.5
2017-04-21T06:52:05.449Z,28.5
2017-04-21T06:54:05.146Z,28.5
2017-04-21T06:56:05.716Z,28.5
2017-04-21T06:58:13.040Z,28.5
2017-04-21T07:00:05.799Z,28.5
2017-04-21T07:02:05.812Z,28.5
2017-04-21T07:04:05.870Z,28.5
2017-04-21T07:06:05.167Z,28.5
2017-04-21T07:08:06.000Z,28.5
2017-04-21T07:10:07.785Z,28.5
2017-04-21T07:12:05.494Z,28.5
2017-04-21T07:14:05.340Z,28.5
2017-04-21T07:16:05.059Z,28.5
2017-04-21T07:18:08.629Z,28.5
2017-04-21T07:20:05.558Z,28.5
2017-04-21T07:22:10.407Z,28.5
2017-04-21T07:24:05.626Z,28.5
2017-04-21T07:26:05.638Z,28.5
2017-04-21T07:28:05.344Z,28.5
2017-04-21T07:30:05.068Z,28.5
2017-04-21T07:32:09.688Z,28.5
2017-04-21T07:34:11.349Z,28.5
2017-04-21T07:36:05.494Z,28.5
2017-04-21T07:38:11.152Z,28.5
2017-04-21T07:40:05.867Z,28.5
2017-04-21T07:42:08.249Z,28.5
2017-04-21T07:44:06.143Z,28.5
2017-04-21T07:46:15.935Z,28.5
2017-04-21T07:48:05.668Z,28.5
2017-04-21T07:50:05.564Z,28.5
2017-04-21T07:52:07.974Z,28.6
2017-04-21T07:54:05.702Z,28.6
2017-04-21T07:56:05.611Z,28.6
2017-04-21T07:58:15.993Z,28.6
2017-04-21T08:02:05.686Z,28.8
2017-04-21T08:04:05.486Z,28.8
2017-04-21T08:06:05.140Z,28.6
2017-04-21T08:08:06.215Z,28.8
2017-04-21T08:10:05.902Z,28.9
2017-04-21T08:12:05.695Z,28.9
2017-04-21T08:14:05.555Z,28.9
2017-04-21T08:16:05.883Z,28.9
2017-04-21T08:18:06.530Z,28.9
2017-04-21T08:20:10.573Z,28.9
2017-04-21T08:22:05.354Z,28.9
2017-04-21T08:24:11.088Z,28.9
2017-04-21T08:26:10.760Z,28.9
2017-04-21T08:28:06.423Z,28.9
2017-04-21T08:30:05.335Z,28.9
2017-04-21T08:32:07.897Z,28.9
2017-04-21T08:34:05.635Z,28.9
2017-04-21T08:36:05.846Z,29
2017-04-21T08:38:05.696Z,29.1
2017-04-21T08:40:08.803Z,29.3
2017-04-21T08:42:05.611Z,29.3
2017-04-21T08:44:05.505Z,29.4
2017-04-21T08:46:05.753Z,29.3
2017-04-21T08:48:05.556Z,29.3
2017-04-21T08:50:05.613Z,29.3
2017-04-21T08:52:05.923Z,29.2
2017-04-21T08:54:05.699Z,29.2
2017-04-21T08:56:05.676Z,29.1
2017-04-21T08:58:05.369Z,29.1
2017-04-21T09:00:05.064Z,29.1
2017-04-21T09:02:05.495Z,29
2017-04-21T09:04:05.152Z,29.2
2017-04-21T09:06:05.845Z,29
2017-04-21T09:08:05.768Z,29.1
2017-04-21T09:10:07.641Z,29.1
2017-04-21T09:12:05.899Z,29.1
2017-04-21T09:14:10.791Z,29
2017-04-21T09:16:05.557Z,29
2017-04-21T09:18:05.475Z,29
2017-04-21T09:20:05.581Z,29
2017-04-21T09:22:05.465Z,28.9
2017-04-21T09:24:07.763Z,28.9
2017-04-21T09:26:10.982Z,28.9
2017-04-21T09:28:05.338Z,28.9
2017-04-21T09:30:05.015Z,28.9
2017-04-21T09:36:05.161Z,28.7
2017-04-21T09:38:05.318Z,28.7
2017-04-21T09:40:05.035Z,28.7
2017-04-21T09:42:05.249Z,28.7
2017-04-21T09:44:14.113Z,28.7
2017-04-21T09:46:05.841Z,28.7
2017-04-21T09:48:05.501Z,28.7
2017-04-21T09:50:07.780Z,28.7
2017-04-21T10:08:12.276Z,28.6
2017-04-21T10:10:05.405Z,28.6
2017-04-21T10:12:05.081Z,28.6
2017-04-21T10:14:11.116Z,28.6
2017-04-21T10:16:06.224Z,28.4
2017-04-21T10:18:05.619Z,28.4
2017-04-21T10:20:05.533Z,28.4
2017-04-21T10:22:05.895Z,28.4
2017-04-21T10:24:08.328Z,28.3
2017-04-21T10:26:05.962Z,28.3
2017-04-21T10:28:05.726Z,28.3
2017-04-21T10:30:08.047Z,28.3
2017-04-21T10:32:06.078Z,28.3
2017-04-21T10:34:05.775Z,28.3
2017-04-21T10:36:05.095Z,28.3
2017-04-21T10:38:05.969Z,28.2
2017-04-21T10:40:05.849Z,28.4
2017-04-21T10:42:05.888Z,28.4
2017-04-21T10:44:06.121Z,28.2
2017-04-21T10:46:05.883Z,28.4
2017-04-21T10:48:05.859Z,28.4
2017-04-21T10:50:05.836Z,28.4
2017-04-21T10:52:05.567Z,28.4
2017-04-21T10:54:05.258Z,28.5
2017-04-21T10:56:08.611Z,28.4
2017-04-21T10:58:07.812Z,28.5
2017-04-21T11:00:13.068Z,28.4
2017-04-21T11:02:11.139Z,28.7
2017-04-21T11:04:06.059Z,28.7
2017-04-21T11:06:05.764Z,28.6
2017-04-21T11:08:06.339Z,28.6
2017-04-21T11:10:10.124Z,28.6
2017-04-21T11:12:13.682Z,28.6
2017-04-21T11:14:08.269Z,28.6
2017-04-21T11:16:06.024Z,28.6
2017-04-21T11:18:12.867Z,28.5
2017-04-21T11:20:05.861Z,28.5
2017-04-21T11:22:05.504Z,28.5
2017-04-21T11:24:05.205Z,28.4
2017-04-21T11:26:06.823Z,28.5
2017-04-21T11:28:07.670Z,28.5
2017-04-21T11:30:08.375Z,28.5
2017-04-21T11:32:10.464Z,28.5
2017-04-21T11:34:05.159Z,28.5
2017-04-21T11:36:08.801Z,28.5
2017-04-21T11:38:05.935Z,28.5
2017-04-21T11:40:05.641Z,28.7
2017-04-21T11:42:05.859Z,28.7
2017-04-21T11:44:06.130Z,28.7
2017-04-21T11:46:05.250Z,28.5
2017-04-21T11:48:05.178Z,28.6
2017-04-21T11:50:09.027Z,28.7
2017-04-21T11:52:06.136Z,28.6
2017-04-21T11:54:05.861Z,28.8
2017-04-21T11:56:07.141Z,29
2017-04-21T11:58:07.279Z,29.3
2017-04-21T12:00:05.976Z,29.8
2017-04-21T12:02:14.475Z,30.9
2017-04-21T12:04:05.939Z,30.8
2017-04-21T12:06:08.497Z,31
2017-04-21T12:08:05.373Z,30.8
2017-04-21T12:10:07.598Z,30.8
2017-04-21T12:12:07.906Z,31
2017-04-21T12:14:06.776Z,31
2017-04-21T12:16:05.714Z,31.3
2017-04-21T12:18:05.646Z,31.4
2017-04-21T12:20:05.827Z,31.3
2017-04-21T12:22:06.869Z,31.3
2017-04-21T12:24:06.906Z,31.5
2017-04-21T12:28:05.978Z,31.3
2017-04-21T12:30:09.866Z,31.2
2017-04-21T12:32:06.358Z,31.3
2017-04-21T12:34:07.851Z,31.2
2017-04-21T12:36:06.722Z,31.2
2017-04-21T12:38:06.119Z,31.3
2017-04-21T12:40:06.290Z,31.2
2017-04-21T12:42:10.541Z,31.1
2017-04-21T12:44:05.650Z,31.1
2017-04-21T12:46:08.051Z,31
2017-04-21T12:48:05.310Z,31
2017-04-21T12:50:05.784Z,31
2017-04-21T12:52:07.950Z,31.1
2017-04-21T12:54:06.549Z,31
2017-04-21T12:58:07.636Z,30.9
2017-04-21T13:00:05.547Z,30.9
2017-04-21T13:02:14.163Z,30.8
2017-04-21T13:04:08.301Z,31.2
2017-04-21T13:06:10.113Z,31.1
2017-04-21T13:08:13.238Z,31.2
2017-04-21T13:10:05.983Z,31.2
2017-04-21T13:12:08.897Z,31.1
2017-04-21T13:14:05.667Z,31
2017-04-21T13:16:05.833Z,31.2
2017-04-21T13:18:05.782Z,31.3
2017-04-21T13:20:08.400Z,31.4
2017-04-21T13:22:05.254Z,31.4
2017-04-21T13:24:06.434Z,31.5
2017-04-21T13:26:05.633Z,31.8
2017-04-21T13:28:05.798Z,31.8
2017-04-21T13:30:05.525Z,32
2017-04-21T13:32:05.414Z,31.9
2017-04-21T13:34:05.109Z,31.9
2017-04-21T13:36:05.799Z,32.2
2017-04-21T13:38:08.315Z,32.4
2017-04-21T13:40:07.601Z,32.5
2017-04-21T13:42:10.593Z,32.5
2017-04-21T13:44:10.543Z,32.5
2017-04-21T13:46:05.466Z,32.6
2017-04-21T13:48:05.696Z,32.6
2017-04-21T13:50:12.408Z,32.7
2017-04-21T13:52:05.510Z,33.1
2017-04-21T13:54:05.313Z,33.2
2017-04-21T13:56:05.405Z,33.2
2017-04-21T13:58:05.615Z,33.3
2017-04-21T14:00:06.005Z,33.3
2017-04-21T14:02:05.902Z,33.4
2017-04-21T14:04:13.287Z,33.4
2017-04-21T14:06:06.053Z,33.4
2017-04-21T14:08:05.673Z,33.5
2017-04-21T14:10:07.963Z,33.5
2017-04-21T14:12:05.623Z,33.5
2017-04-21T14:14:05.703Z,33.5
2017-04-21T14:16:06.264Z,33.5
2017-04-21T14:18:05.190Z,33.6
2017-04-21T14:20:06.164Z,33.6
2017-04-21T14:22:10.998Z,33.4
2017-04-21T14:24:05.839Z,33.4
2017-04-21T14:26:06.658Z,33.7
2017-04-21T14:28:07.844Z,33.7
2017-04-21T14:30:08.089Z,33.7
2017-04-21T14:32:05.997Z,33.5
2017-04-21T14:34:08.591Z,33.8
2017-04-21T14:36:05.679Z,33.6
2017-04-21T14:38:08.343Z,33.6
2017-04-21T14:40:05.663Z,33.9
2017-04-21T14:42:05.409Z,33.8
2017-04-21T14:44:05.442Z,33.7
2017-04-21T14:46:05.182Z,33.8
2017-04-21T14:48:08.911Z,33.9
2017-04-21T14:50:08.908Z,34.1
2017-04-21T14:52:05.821Z,33.8
2017-04-21T14:54:05.414Z,33.8
2017-04-21T14:56:06.160Z,33.8
2017-04-21T14:58:05.899Z,33.7
2017-04-21T15:00:08.378Z,33.8
2017-04-21T15:02:09.102Z,33.8
2017-04-21T15:04:05.885Z,33.8
2017-04-21T15:06:05.584Z,33.7
2017-04-21T15:08:05.546Z,33.7
2017-04-21T15:10:05.223Z,33.7
2017-04-21T15:12:05.506Z,33.7
2017-04-21T15:14:05.419Z,33.8
2017-04-21T15:16:05.461Z,33.8
2017-04-21T15:18:10.430Z,33.8
2017-04-21T15:20:05.534Z,33.8
2017-04-21T15:22:05.342Z,33.8
2017-04-21T15:24:05.053Z,33.7
2017-04-21T15:26:06.118Z,33.8
2017-04-21T15:28:05.815Z,33.7
2017-04-21T15:30:08.051Z,33.7
2017-04-21T15:32:06.262Z,33.7
2017-04-21T15:34:08.485Z,34
2017-04-21T15:36:05.519Z,34
2017-04-21T15:38:05.476Z,33.9
2017-04-21T15:40:05.399Z,34
2017-04-21T15:42:05.228Z,34
2017-04-21T15:44:06.931Z,33.9
2017-04-21T15:46:10.222Z,33.8
2017-04-21T15:48:05.952Z,33.6
2017-04-21T15:50:05.968Z,33.6
2017-04-21T15:52:08.633Z,33.2
2017-04-21T15:54:05.440Z,33.2
2017-04-21T15:56:05.518Z,33.1
2017-04-21T15:58:05.189Z,33.1
2017-04-21T16:00:05.929Z,33.1
2017-04-21T16:02:06.243Z,33
2017-04-21T16:04:05.048Z,32.9
2017-04-21T16:06:05.686Z,33.1
2017-04-21T16:08:05.740Z,33
2017-04-21T16:10:05.515Z,32.9
2017-04-21T16:12:08.281Z,32.8
2017-04-21T16:14:08.671Z,32.8
2017-04-21T16:16:05.479Z,32.8
2017-04-21T16:18:05.449Z,32.8
2017-04-21T16:20:05.509Z,32.9
2017-04-21T16:22:07.779Z,34
2017-04-21T16:24:05.746Z,34
2017-04-21T16:26:05.841Z,33.8
2017-04-21T16:28:08.070Z,33.9
2017-04-21T16:30:15.475Z,33.9
2017-04-21T16:32:10.454Z,33.8
2017-04-21T16:34:05.193Z,33.7
2017-04-21T16:36:05.450Z,33.8
2017-04-21T16:38:05.608Z,34.1
2017-04-21T16:40:05.680Z,33.8
2017-04-21T16:42:05.505Z,33.7
2017-04-21T16:44:06.561Z,33.8
2017-04-21T16:46:05.346Z,33.8
2017-04-21T16:48:05.065Z,33.7
2017-04-21T16:50:13.765Z,33.6
2017-04-21T16:52:05.478Z,33.6
2017-04-21T16:54:05.313Z,33.6
2017-04-21T16:56:05.446Z,33.5
2017-04-21T16:58:07.851Z,33.1
2017-04-21T17:00:05.295Z,33.3
2017-04-21T17:02:05.362Z,33.3
2017-04-21T17:04:05.036Z,33.3
2017-04-21T17:06:05.487Z,33.2
2017-04-21T17:08:10.544Z,33.1
2017-04-21T17:10:05.029Z,32.9
2017-04-21T17:12:06.040Z,33.1
2017-04-21T17:14:05.904Z,32.8
2017-04-21T17:16:05.620Z,32.8
2017-04-21T17:18:05.592Z,33
2017-04-21T17:20:05.428Z,32.7
2017-04-21T17:22:07.839Z,32.7
2017-04-21T17:24:05.545Z,32.7
2017-04-21T17:26:05.663Z,32.6
2017-04-21T17:28:05.503Z,32.6
2017-04-21T17:30:05.730Z,32.5
2017-04-21T17:32:05.749Z,32.5
2017-04-21T17:34:08.080Z,32.5
2017-04-21T17:36:05.751Z,32.5
2017-04-21T17:38:05.861Z,32.4
2017-04-21T17:40:08.134Z,32.4
2017-04-21T17:42:08.383Z,32.3
2017-04-21T17:44:05.445Z,32.3
2017-04-21T17:46:05.155Z,32.3
2017-04-21T17:48:05.941Z,32.3
2017-04-21T17:50:06.036Z,32.3
2017-04-21T17:52:05.320Z,32.2
2017-04-21T17:54:05.631Z,32.2
2017-04-21T17:56:05.633Z,32.2
2017-04-21T17:58:05.553Z,32
2017-04-21T18:00:08.634Z,32
2017-04-21T18:02:06.054Z,32.2
2017-04-21T18:04:05.350Z,31.9
2017-04-21T18:06:05.299Z,32.1
2017-04-21T18:08:05.659Z,31.9
2017-04-21T18:10:07.852Z,31.9
2017-04-21T18:12:05.599Z,31.9
2017-04-21T18:14:08.592Z,31.8
2017-04-21T18:16:10.442Z,31.8
2017-04-21T18:18:10.442Z,31.8
2017-04-21T18:20:05.517Z,31.8
2017-04-21T18:22:05.274Z,31.7
2017-04-21T18:24:05.974Z,31.8
2017-04-21T18:26:05.840Z,31.7
2017-04-21T18:28:05.104Z,31.7
2017-04-21T18:30:10.845Z,31.7
2017-04-21T18:32:05.864Z,31.6
2017-04-21T18:34:05.098Z,31.7
2017-04-21T18:36:05.187Z,31.6
2017-04-21T18:38:06.245Z,31.6
2017-04-21T18:40:08.478Z,31.6
2017-04-21T18:42:05.431Z,31.6
2017-04-21T18:44:05.575Z,31.6
2017-04-21T18:46:05.963Z,31.6
2017-04-21T18:48:06.052Z,31.6
2017-04-21T18:50:06.200Z,31.6
2017-04-21T18:52:05.854Z,31.6
2017-04-21T18:54:05.053Z,31.6
2017-04-21T18:56:06.089Z,31.5
2017-04-21T18:58:05.985Z,31.6
2017-04-21T19:00:05.723Z,31.6
2017-04-21T19:02:05.889Z,31.6
2017-04-21T19:04:06.089Z,31.6
2017-04-21T19:06:05.785Z,31.6
2017-04-21T19:08:10.358Z,31.6
2017-04-21T19:10:07.595Z,31.5
2017-04-21T19:12:05.439Z,31.3
2017-04-21T19:14:05.439Z,31.3
2017-04-21T19:16:05.176Z,31.5
2017-04-21T19:18:05.081Z,31.2
2017-04-21T19:20:06.124Z,31.2
2017-04-21T19:22:05.902Z,31.2
2017-04-21T19:24:05.618Z,31.5
2017-04-21T19:26:05.758Z,31.2
2017-04-21T19:28:05.509Z,31.2
2017-04-21T19:30:05.214Z,31.2
2017-04-21T19:32:08.793Z,31.2
2017-04-21T19:34:05.529Z,31.2
2017-04-21T19:36:05.794Z,31.2
2017-04-21T19:38:05.811Z,31.2
2017-04-21T19:40:05.559Z,31.1
2017-04-21T19:42:05.298Z,31.2
2017-04-21T19:44:06.163Z,31.2
2017-04-21T19:46:05.891Z,31.2
2017-04-21T19:48:05.615Z,31.2
2017-04-21T19:50:06.151Z,31.1
2017-04-21T19:52:11.020Z,31.2
2017-04-21T19:54:05.685Z,31.1
2017-04-21T19:56:08.723Z,31.1
2017-04-21T19:58:05.390Z,31.1
2017-04-21T20:00:05.061Z,31.1
2017-04-21T20:02:06.099Z,31.1
2017-04-21T20:04:08.012Z,31.2
2017-04-21T20:06:05.959Z,31.1
2017-04-21T20:08:06.183Z,31.1
2017-04-21T20:10:05.843Z,31.1
2017-04-21T20:12:05.547Z,31.1
2017-04-21T20:14:06.069Z,31.1
2017-04-21T20:16:07.558Z,31.1
2017-04-21T20:18:14.017Z,31.1
2017-04-21T20:20:06.071Z,31.1
2017-04-21T20:22:05.320Z,31.1
2017-04-21T20:24:05.938Z,31.1
2017-04-21T20:26:08.588Z,31.1
2017-04-21T20:28:08.045Z,31.1
2017-04-21T20:30:05.723Z,31.1
2017-04-21T20:32:05.796Z,31.1
2017-04-21T20:34:05.456Z,31.1
2017-04-21T20:36:07.680Z,31.1
2017-04-21T20:38:05.576Z,31.1
2017-04-21T20:40:05.590Z,31.1
2017-04-21T20:42:05.788Z,31.1
2017-04-21T20:44:05.759Z,31.1
2017-04-21T20:46:05.433Z,31.1
2017-04-21T20:48:08.203Z,31.1
2017-04-21T20:50:06.072Z,30.9
2017-04-21T20:52:05.875Z,30.9
2017-04-21T20:54:05.603Z,30.9
2017-04-21T20:56:08.399Z,30.9
2017-04-21T20:58:08.204Z,31.1
2017-04-21T21:00:05.850Z,30.9
2017-04-21T21:02:05.369Z,30.9
2017-04-21T21:04:05.051Z,30.9
2017-04-21T21:06:05.778Z,30.8
2017-04-21T21:08:06.258Z,30.8
2017-04-21T21:10:05.177Z,30.8
2017-04-21T21:12:08.585Z,29.3
2017-04-21T21:14:08.211Z,30.8
2017-04-21T21:16:05.896Z,30.8
2017-04-21T21:18:08.438Z,30.9
2017-04-21T21:20:05.314Z,30.8
2017-04-21T21:22:05.631Z,30.8
2017-04-21T21:24:07.932Z,30.8
2017-04-21T21:26:06.001Z,30.8
2017-04-21T21:28:07.074Z,30.8
2017-04-21T21:30:06.501Z,30.8
2017-04-21T21:32:08.446Z,30.8
2017-04-21T21:34:05.904Z,30.8
2017-04-21T21:36:05.844Z,30.8
2017-04-21T21:38:05.990Z,30.8
2017-04-21T21:40:08.472Z,30.8
2017-04-21T21:42:09.196Z,30.8
2017-04-21T21:44:06.270Z,30.8
2017-04-21T21:46:09.033Z,30.8
2017-04-21T21:48:08.026Z,30.8
2017-04-21T21:50:09.310Z,30.8
2017-04-21T21:52:06.654Z,30.8
2017-04-21T21:54:05.439Z,30.8
2017-04-21T21:56:10.352Z,30.8
2017-04-21T21:58:05.808Z,30.8
2017-04-21T22:00:06.227Z,30.8
2017-04-21T22:02:10.122Z,30.8
2017-04-21T22:04:06.352Z,30.8
2017-04-21T22:06:06.539Z,30.8
2017-04-21T22:08:08.804Z,30.8
2017-04-21T22:10:05.722Z,30.8
2017-04-21T22:12:07.971Z,30.8
2017-04-21T22:14:05.937Z,30.8
2017-04-21T22:16:06.006Z,30.8
2017-04-21T22:18:08.420Z,30.8
2017-04-21T22:20:05.286Z,30.8
2017-04-21T22:22:06.053Z,30.8
2017-04-21T22:24:07.872Z,30.7
2017-04-21T22:26:08.439Z,30.8
2017-04-21T22:28:07.726Z,30.8
2017-04-21T22:30:08.015Z,30.8
2017-04-21T22:32:05.873Z,30.7
2017-04-21T22:34:08.110Z,30.8
2017-04-21T22:36:05.882Z,30.7
2017-04-21T22:38:07.889Z,30.7
2017-04-21T22:40:05.588Z,30.7
2017-04-21T22:42:08.117Z,30.7
2017-04-21T22:44:07.213Z,30.7
2017-04-21T22:46:08.727Z,30.7
2017-04-21T22:48:05.720Z,30.7
2017-04-21T22:50:05.434Z,30.7
2017-04-21T22:52:05.168Z,30.7
2017-04-21T22:54:09.323Z,30.7
2017-04-21T22:56:05.679Z,30.7
2017-04-21T22:58:05.356Z,30.7
2017-04-21T23:00:09.636Z,30.7
2017-04-21T23:02:06.010Z,30.7
2017-04-21T23:04:06.129Z,30.7
2017-04-21T23:06:06.042Z,30.7
2017-04-21T23:08:08.623Z,30.7
2017-04-21T23:10:05.301Z,30.5
2017-04-21T23:12:06.034Z,30.7
2017-04-21T23:14:11.181Z,30.7
2017-04-21T23:16:06.752Z,30.7
2017-04-21T23:18:10.182Z,30.7
2017-04-21T23:20:06.134Z,30.7
2017-04-21T23:22:06.094Z,30.7
2017-04-21T23:24:05.058Z,30.7
2017-04-21T23:26:06.064Z,30.7
2017-04-21T23:28:08.718Z,30.7
2017-04-21T23:30:04.995Z,30.7
2017-04-21T23:32:08.596Z,30.7
2017-04-21T23:34:05.238Z,30.5
2017-04-21T23:36:06.353Z,30.7
2017-04-21T23:38:05.353Z,30.7
2017-04-21T23:40:08.116Z,30.7
2017-04-21T23:42:05.317Z,30.7
2017-04-21T23:44:05.416Z,30.7
2017-04-21T23:46:05.110Z,30.7
2017-04-21T23:48:06.009Z,30.7
2017-04-21T23:50:05.881Z,30.7
2017-04-21T23:52:08.231Z,30.7
2017-04-21T23:54:06.008Z,30.7
2017-04-21T23:56:06.089Z,30.7
2017-04-21T23:58:08.275Z,30.7
